createdAt,value
2018-08-11T00:00:09.921Z,1006.22
2018-08-11T00:01:09.893Z,1006.18
2018-08-11T00:02:09.864Z,1006.20
2018-08-11T00:03:09.845Z,1006.15
2018-08-11T00:04:09.820Z,1006.20
2018-08-11T00:05:09.784Z,1006.23
2018-08-11T00:06:09.769Z,1006.18
2018-08-11T00:07:09.744Z,1006.19
2018-08-11T00:08:09.713Z,1006.24
2018-08-11T00:09:09.690Z,1006.26
2018-08-11T00:10:09.663Z,1006.23
2018-08-11T00:11:09.639Z,1006.23
2018-08-11T00:12:09.612Z,1006.22
2018-08-11T00:13:09.585Z,1006.25
2018-08-11T00:14:09.568Z,1006.31
2018-08-11T00:15:09.539Z,1006.23
2018-08-11T00:16:09.512Z,1006.24
2018-08-11T00:17:09.483Z,1006.24
2018-08-11T00:18:09.462Z,1006.31
2018-08-11T00:19:09.454Z,1006.27
2018-08-11T00:20:09.407Z,1006.28
2018-08-11T00:21:09.393Z,1006.28
2018-08-11T00:22:09.361Z,1006.25
2018-08-11T00:23:09.332Z,1006.25
2018-08-11T00:24:09.309Z,1006.25
2018-08-11T00:25:09.278Z,1006.24
2018-08-11T00:26:09.262Z,1006.27
2018-08-11T00:27:09.232Z,1006.24
2018-08-11T00:28:09.210Z,1006.24
2018-08-11T00:29:09.186Z,1006.20
2018-08-11T00:30:09.152Z,1006.34
2018-08-11T00:31:09.132Z,1006.32
2018-08-11T00:32:09.103Z,1006.25
2018-08-11T00:33:09.079Z,1006.25
2018-08-11T00:34:09.052Z,1006.25
2018-08-11T00:35:09.026Z,1006.23
2018-08-11T00:36:09.009Z,1006.20
2018-08-11T00:37:08.973Z,1006.24
2018-08-11T00:38:08.950Z,1006.18
2018-08-11T00:39:08.932Z,1006.23
2018-08-11T00:40:08.905Z,1006.25
2018-08-11T00:41:08.880Z,1006.29
2018-08-11T00:42:08.849Z,1006.28
2018-08-11T00:43:08.826Z,1006.24
2018-08-11T00:44:08.798Z,1006.26
2018-08-11T00:45:08.771Z,1006.33
2018-08-11T00:46:08.756Z,1006.32
2018-08-11T00:47:08.721Z,1006.31
2018-08-11T00:48:08.702Z,1006.32
2018-08-11T00:49:08.677Z,1006.26
2018-08-11T00:50:08.643Z,1006.28
2018-08-11T00:51:08.775Z,1006.32
2018-08-11T00:52:08.600Z,1006.39
2018-08-11T00:53:08.577Z,1006.27
2018-08-11T00:54:08.543Z,1006.29
2018-08-11T00:55:08.521Z,1006.23
2018-08-11T00:56:08.492Z,1006.30
2018-08-11T00:57:08.473Z,1006.31
2018-08-11T00:58:08.450Z,1006.32
2018-08-11T00:59:08.423Z,1006.36
2018-08-11T01:00:08.392Z,1006.43
2018-08-11T01:01:08.369Z,1006.38
2018-08-11T01:02:08.343Z,1006.42
2018-08-11T01:03:08.314Z,1006.49
2018-08-11T01:04:08.295Z,1006.51
2018-08-11T01:05:08.268Z,1006.54
2018-08-11T01:06:08.238Z,1006.61
2018-08-11T01:07:08.216Z,1006.81
2018-08-11T01:08:08.195Z,1006.79
2018-08-11T01:09:08.168Z,1006.71
2018-08-11T01:10:08.137Z,1006.76
2018-08-11T01:11:08.117Z,1006.93
2018-08-11T01:12:08.088Z,1006.75
2018-08-11T01:13:08.065Z,1006.86
2018-08-11T01:14:08.037Z,1006.98
2018-08-11T01:15:08.020Z,1006.86
2018-08-11T01:16:07.988Z,1006.79
2018-08-11T01:17:07.961Z,1006.98
2018-08-11T01:18:07.937Z,1006.94
2018-08-11T01:19:07.907Z,1007.05
2018-08-11T01:20:07.883Z,1007.34
2018-08-11T01:21:07.863Z,1007.12
2018-08-11T01:22:07.824Z,1007.13
2018-08-11T01:23:07.804Z,1007.11
2018-08-11T01:24:07.787Z,1007.30
2018-08-11T01:25:07.755Z,1007.17
2018-08-11T01:26:07.725Z,1007.23
2018-08-11T01:27:07.698Z,1007.36
2018-08-11T01:28:07.677Z,1007.24
2018-08-11T01:29:07.645Z,1007.35
2018-08-11T01:30:07.629Z,1007.38
2018-08-11T01:31:07.597Z,1007.48
2018-08-11T01:32:07.576Z,1007.43
2018-08-11T01:33:07.547Z,1007.50
2018-08-11T01:34:07.524Z,1007.50
2018-08-11T01:35:07.498Z,1007.33
2018-08-11T01:36:07.471Z,1007.43
2018-08-11T01:37:07.449Z,1007.39
2018-08-11T01:38:07.421Z,1007.34
2018-08-11T01:39:07.390Z,1007.25
2018-08-11T01:40:07.364Z,1007.34
2018-08-11T01:41:07.335Z,1007.32
2018-08-11T01:42:07.311Z,1007.39
2018-08-11T01:43:07.292Z,1007.37
2018-08-11T01:44:07.265Z,1007.34
2018-08-11T01:45:07.233Z,1007.43
2018-08-11T01:46:07.210Z,1007.41
2018-08-11T01:47:07.184Z,1007.37
2018-08-11T01:48:07.155Z,1007.37
2018-08-11T01:49:07.132Z,1007.36
2018-08-11T01:50:07.105Z,1007.30
2018-08-11T01:51:07.077Z,1007.30
2018-08-11T01:52:07.054Z,1007.32
2018-08-11T01:53:07.026Z,1007.31
2018-08-11T01:54:07.001Z,1007.23
2018-08-11T01:55:06.972Z,1007.29
2018-08-11T01:56:06.951Z,1007.21
2018-08-11T01:57:06.932Z,1007.26
2018-08-11T01:58:06.894Z,1007.29
2018-08-11T01:59:06.866Z,1007.25
2018-08-11T02:00:06.847Z,1007.29
2018-08-11T02:01:06.819Z,1007.27
2018-08-11T02:02:06.791Z,1007.21
2018-08-11T02:03:06.769Z,1007.20
2018-08-11T02:04:06.744Z,1007.15
2018-08-11T02:05:06.717Z,1007.11
2018-08-11T02:06:06.688Z,1007.11
2018-08-11T02:07:06.663Z,1007.12
2018-08-11T02:08:06.635Z,1007.17
2018-08-11T02:09:06.606Z,1007.18
2018-08-11T02:10:06.590Z,1007.16
2018-08-11T02:11:06.584Z,1007.18
2018-08-11T02:12:06.532Z,1007.16
2018-08-11T02:13:06.506Z,1007.12
2018-08-11T02:14:06.477Z,1007.05
2018-08-11T02:15:06.458Z,1006.96
2018-08-11T02:16:06.423Z,1006.94
2018-08-11T02:17:06.405Z,1006.94
2018-08-11T02:18:06.371Z,1006.94
2018-08-11T02:19:06.346Z,1006.87
2018-08-11T02:20:06.326Z,1006.74
2018-08-11T02:21:06.294Z,1006.73
2018-08-11T02:22:06.272Z,1006.77
2018-08-11T02:23:06.245Z,1006.84
2018-08-11T02:24:06.218Z,1006.94
2018-08-11T02:25:06.194Z,1006.93
2018-08-11T02:26:06.164Z,1006.91
2018-08-11T02:27:06.141Z,1006.93
2018-08-11T02:28:06.118Z,1006.97
2018-08-11T02:29:06.082Z,1006.97
2018-08-11T02:30:06.061Z,1006.91
2018-08-11T02:31:06.043Z,1006.92
2018-08-11T02:32:06.011Z,1006.89
2018-08-11T02:33:05.986Z,1006.93
2018-08-11T02:34:05.951Z,1006.94
2018-08-11T02:35:05.932Z,1006.95
2018-08-11T02:36:05.911Z,1006.97
2018-08-11T02:37:05.874Z,1006.95
2018-08-11T02:38:05.860Z,1006.94
2018-08-11T02:39:05.830Z,1006.89
2018-08-11T02:40:05.795Z,1006.83
2018-08-11T02:41:05.784Z,1006.86
2018-08-11T02:42:05.742Z,1006.86
2018-08-11T02:43:05.719Z,1006.80
2018-08-11T02:44:05.696Z,1006.92
2018-08-11T02:45:05.667Z,1006.91
2018-08-11T02:46:05.644Z,1006.90
2018-08-11T02:47:05.619Z,1006.96
2018-08-11T02:48:05.596Z,1006.97
2018-08-11T02:49:05.566Z,1006.97
2018-08-11T02:50:05.538Z,1006.97
2018-08-11T02:51:05.512Z,1007.04
2018-08-11T02:52:05.488Z,1007.09
2018-08-11T02:53:05.465Z,1007.12
2018-08-11T02:54:05.429Z,1007.21
2018-08-11T02:55:05.410Z,1007.21
2018-08-11T02:56:05.379Z,1007.28
2018-08-11T02:57:05.352Z,1007.29
2018-08-11T02:58:05.332Z,1007.27
2018-08-11T02:59:05.298Z,1007.29
2018-08-11T03:00:05.282Z,1007.29
2018-08-11T03:01:05.253Z,1007.29
2018-08-11T03:02:05.227Z,1007.35
2018-08-11T03:03:05.209Z,1007.35
2018-08-11T03:04:05.175Z,1007.33
2018-08-11T03:05:05.142Z,1007.34
2018-08-11T03:06:05.120Z,1007.33
2018-08-11T03:07:05.095Z,1007.30
2018-08-11T03:08:05.067Z,1007.34
2018-08-11T03:09:05.042Z,1007.29
2018-08-11T03:10:05.014Z,1007.29
2018-08-11T03:11:04.987Z,1007.27
2018-08-11T03:12:04.964Z,1007.25
2018-08-11T03:13:04.934Z,1007.29
2018-08-11T03:14:05.004Z,1007.31
2018-08-11T03:15:04.887Z,1007.25
2018-08-11T03:16:04.853Z,1007.27
2018-08-11T03:17:04.838Z,1007.26
2018-08-11T03:18:04.808Z,1007.25
2018-08-11T03:19:04.778Z,1007.29
2018-08-11T03:20:04.751Z,1007.28
2018-08-11T03:21:04.724Z,1007.29
2018-08-11T03:22:04.707Z,1007.26
2018-08-11T03:23:04.674Z,1007.28
2018-08-11T03:24:04.653Z,1007.28
2018-08-11T03:25:04.627Z,1007.32
2018-08-11T03:26:04.593Z,1007.32
2018-08-11T03:27:04.574Z,1007.26
2018-08-11T03:28:04.543Z,1007.22
2018-08-11T03:29:04.512Z,1007.24
2018-08-11T03:30:04.497Z,1007.23
2018-08-11T03:31:04.464Z,1007.32
2018-08-11T03:32:04.447Z,1007.29
2018-08-11T03:33:04.420Z,1007.36
2018-08-11T03:34:04.385Z,1007.34
2018-08-11T03:35:04.368Z,1007.34
2018-08-11T03:36:04.338Z,1007.32
2018-08-11T03:37:04.313Z,1007.29
2018-08-11T03:38:04.285Z,1007.35
2018-08-11T03:39:04.258Z,1007.37
2018-08-11T03:40:04.229Z,1007.37
2018-08-11T03:41:04.206Z,1007.38
2018-08-11T03:42:04.177Z,1007.38
2018-08-11T03:43:04.150Z,1007.36
2018-08-11T03:44:04.126Z,1007.36
2018-08-11T03:45:04.096Z,1007.32
2018-08-11T03:46:04.097Z,1007.36
2018-08-11T03:47:04.046Z,1007.34
2018-08-11T03:48:04.022Z,1007.32
2018-08-11T03:49:03.999Z,1007.29
2018-08-11T03:50:03.964Z,1007.27
2018-08-11T03:51:03.944Z,1007.34
2018-08-11T03:52:03.922Z,1007.29
2018-08-11T03:53:03.891Z,1007.27
2018-08-11T03:54:03.867Z,1007.32
2018-08-11T03:55:03.847Z,1007.29
2018-08-11T03:56:03.810Z,1007.31
2018-08-11T03:57:03.792Z,1007.28
2018-08-11T03:58:03.756Z,1007.32
2018-08-11T03:59:03.730Z,1007.31
2018-08-11T04:00:03.712Z,1007.34
2018-08-11T04:01:03.676Z,1007.34
2018-08-11T04:02:03.661Z,1007.35
2018-08-11T04:03:03.624Z,1007.41
2018-08-11T04:04:03.606Z,1007.41
2018-08-11T04:05:03.578Z,1007.42
2018-08-11T04:06:03.553Z,1007.47
2018-08-11T04:07:03.536Z,1007.48
2018-08-11T04:08:03.499Z,1007.47
2018-08-11T04:09:03.469Z,1007.56
2018-08-11T04:10:03.447Z,1007.51
2018-08-11T04:11:03.413Z,1007.49
2018-08-11T04:12:03.395Z,1007.54
2018-08-11T04:13:03.362Z,1007.52
2018-08-11T04:14:03.344Z,1007.56
2018-08-11T04:15:03.317Z,1007.55
2018-08-11T04:16:03.283Z,1007.61
2018-08-11T04:17:03.263Z,1007.67
2018-08-11T04:18:03.231Z,1007.64
2018-08-11T04:19:03.214Z,1007.61
2018-08-11T04:20:03.176Z,1007.69
2018-08-11T04:21:03.162Z,1007.71
2018-08-11T04:22:03.129Z,1007.67
2018-08-11T04:23:03.099Z,1007.67
2018-08-11T04:24:03.074Z,1007.65
2018-08-11T04:25:03.048Z,1007.65
2018-08-11T04:26:03.027Z,1007.63
2018-08-11T04:27:03.000Z,1007.68
2018-08-11T04:28:02.967Z,1007.67
2018-08-11T04:29:02.951Z,1007.64
2018-08-11T04:30:02.919Z,1007.64
2018-08-11T04:31:02.889Z,1007.64
2018-08-11T04:32:02.873Z,1007.67
2018-08-11T04:33:02.835Z,1007.70
2018-08-11T04:34:02.827Z,1007.69
2018-08-11T04:35:02.785Z,1007.70
2018-08-11T04:36:02.768Z,1007.70
2018-08-11T04:37:02.736Z,1007.73
2018-08-11T04:38:02.709Z,1007.73
2018-08-11T04:39:02.683Z,1007.75
2018-08-11T04:40:02.660Z,1007.75
2018-08-11T04:41:02.635Z,1007.72
2018-08-11T04:42:02.648Z,1007.75
2018-08-11T04:43:02.578Z,1007.77
2018-08-11T04:44:02.560Z,1007.79
2018-08-11T04:45:02.527Z,1007.81
2018-08-11T04:46:02.497Z,1007.84
2018-08-11T04:47:02.479Z,1007.84
2018-08-11T04:48:02.452Z,1007.82
2018-08-11T04:49:02.421Z,1007.83
2018-08-11T04:50:02.398Z,1007.88
2018-08-11T04:51:02.373Z,1007.89
2018-08-11T04:52:02.341Z,1007.90
2018-08-11T04:53:02.317Z,1007.82
2018-08-11T04:54:02.284Z,1007.85
2018-08-11T04:55:02.268Z,1007.79
2018-08-11T04:56:02.236Z,1007.82
2018-08-11T04:57:02.211Z,1007.82
2018-08-11T04:58:02.185Z,1007.79
2018-08-11T04:59:02.164Z,1007.83
2018-08-11T05:00:02.127Z,1007.85
2018-08-11T05:01:02.102Z,1007.86
2018-08-11T05:02:02.084Z,1007.91
2018-08-11T05:03:02.049Z,1007.90
2018-08-11T05:04:02.031Z,1007.97
2018-08-11T05:05:02.001Z,1008.01
2018-08-11T05:06:01.976Z,1008.00
2018-08-11T05:07:01.946Z,1008.05
2018-08-11T05:08:01.927Z,1007.98
2018-08-11T05:09:01.904Z,1008.03
2018-08-11T05:10:01.866Z,1008.01
2018-08-11T05:11:01.842Z,1008.02
2018-08-11T05:12:01.815Z,1008.08
2018-08-11T05:13:01.789Z,1008.15
2018-08-11T05:14:01.773Z,1008.15
2018-08-11T05:15:01.734Z,1008.12
2018-08-11T05:16:01.717Z,1008.14
2018-08-11T05:17:01.680Z,1008.17
2018-08-11T05:18:01.664Z,1008.14
2018-08-11T05:19:01.640Z,1008.21
2018-08-11T05:20:01.656Z,1008.16
2018-08-11T05:21:01.588Z,1008.21
2018-08-11T05:22:01.553Z,1008.17
2018-08-11T05:23:01.535Z,1008.17
2018-08-11T05:24:01.498Z,1008.21
2018-08-11T05:25:01.484Z,1008.22
2018-08-11T05:26:01.450Z,1008.27
2018-08-11T05:27:01.425Z,1008.28
2018-08-11T05:28:01.402Z,1008.25
2018-08-11T05:29:01.371Z,1008.25
2018-08-11T05:30:01.351Z,1008.28
2018-08-11T05:31:01.324Z,1008.24
2018-08-11T05:32:01.295Z,1008.41
2018-08-11T05:33:01.275Z,1008.33
2018-08-11T05:34:01.241Z,1008.28
2018-08-11T05:35:01.225Z,1008.26
2018-08-11T05:36:01.191Z,1008.27
2018-08-11T05:37:01.157Z,1008.30
2018-08-11T05:38:01.143Z,1008.30
2018-08-11T05:39:01.110Z,1008.34
2018-08-11T05:40:01.095Z,1008.36
2018-08-11T05:41:01.057Z,1008.38
2018-08-11T05:42:01.028Z,1008.40
2018-08-11T05:43:01.004Z,1008.33
2018-08-11T05:44:00.983Z,1008.38
2018-08-11T05:45:00.949Z,1008.45
2018-08-11T05:46:00.927Z,1008.44
2018-08-11T05:47:00.902Z,1008.38
2018-08-11T05:48:00.874Z,1008.38
2018-08-11T05:49:00.840Z,1008.40
2018-08-11T05:50:00.823Z,1008.47
2018-08-11T05:51:00.792Z,1008.42
2018-08-11T05:52:00.782Z,1008.44
2018-08-11T05:53:00.749Z,1008.48
2018-08-11T05:54:00.714Z,1008.47
2018-08-11T05:55:00.686Z,1008.50
2018-08-11T05:56:00.666Z,1008.46
2018-08-11T05:57:00.654Z,1008.45
2018-08-11T05:58:00.605Z,1008.49
2018-08-11T05:59:00.587Z,1008.45
2018-08-11T06:00:00.558Z,1008.48
2018-08-11T06:01:00.526Z,1008.66
2018-08-11T06:02:00.518Z,1008.55
2018-08-11T06:03:00.485Z,1008.53
2018-08-11T06:04:00.533Z,1008.54
2018-08-11T06:05:00.441Z,1008.57
2018-08-11T06:06:00.404Z,1008.53
2018-08-11T06:07:00.370Z,1008.57
2018-08-11T06:08:00.352Z,1008.65
2018-08-11T06:09:00.460Z,1008.57
2018-08-11T06:10:00.298Z,1008.66
2018-08-11T06:11:00.270Z,1008.76
2018-08-11T06:12:00.242Z,1008.61
2018-08-11T06:13:00.212Z,1008.58
2018-08-11T06:14:00.190Z,1008.64
2018-08-11T06:15:00.165Z,1008.64
2018-08-11T06:16:00.134Z,1008.64
2018-08-11T06:17:00.115Z,1008.64
2018-08-11T06:18:00.084Z,1008.64
2018-08-11T06:19:00.063Z,1008.67
2018-08-11T06:20:00.032Z,1008.69
2018-08-11T06:21:00.035Z,1008.68
2018-08-11T06:21:59.980Z,1008.67
2018-08-11T06:22:59.955Z,1008.72
2018-08-11T06:23:59.929Z,1008.78
2018-08-11T06:24:59.901Z,1008.71
2018-08-11T06:25:59.879Z,1008.73
2018-08-11T06:26:59.849Z,1008.74
2018-08-11T06:27:59.825Z,1008.69
2018-08-11T06:28:59.794Z,1008.78
2018-08-11T06:29:59.766Z,1008.75
2018-08-11T06:30:59.752Z,1008.78
2018-08-11T06:31:59.750Z,1008.81
2018-08-11T06:32:59.696Z,1008.81
2018-08-11T06:33:59.667Z,1008.80
2018-08-11T06:34:59.638Z,1008.79
2018-08-11T06:35:59.655Z,1008.79
2018-08-11T06:36:59.592Z,1008.86
2018-08-11T06:37:59.565Z,1008.88
2018-08-11T06:38:59.533Z,1008.86
2018-08-11T06:39:59.511Z,1008.87
2018-08-11T06:40:59.594Z,1008.86
2018-08-11T06:41:59.485Z,1008.82
2018-08-11T06:42:59.438Z,1008.87
2018-08-11T06:43:59.400Z,1008.95
2018-08-11T06:44:59.382Z,1008.95
2018-08-11T06:45:59.347Z,1008.90
2018-08-11T06:46:59.333Z,1008.93
2018-08-11T06:47:59.303Z,1008.94
2018-08-11T06:48:59.268Z,1009.00
2018-08-11T06:49:59.251Z,1009.07
2018-08-11T06:50:59.229Z,1009.06
2018-08-11T06:51:59.197Z,1008.93
2018-08-11T06:52:59.168Z,1008.94
2018-08-11T06:53:59.145Z,1008.99
2018-08-11T06:54:59.307Z,1009.07
2018-08-11T06:55:59.089Z,1009.07
2018-08-11T06:56:59.061Z,1009.06
2018-08-11T06:57:59.037Z,1009.04
2018-08-11T06:58:59.010Z,1009.06
2018-08-11T06:59:58.988Z,1009.03
2018-08-11T07:00:58.954Z,1009.14
2018-08-11T07:01:58.961Z,1009.13
2018-08-11T07:02:58.911Z,1009.07
2018-08-11T07:03:58.889Z,1009.04
2018-08-11T07:04:58.858Z,1009.10
2018-08-11T07:05:58.824Z,1009.05
2018-08-11T07:06:58.865Z,1009.12
2018-08-11T07:07:58.776Z,1009.10
2018-08-11T07:08:58.743Z,1009.08
2018-08-11T07:09:58.721Z,1009.14
2018-08-11T07:10:58.697Z,1009.16
2018-08-11T07:11:58.674Z,1009.09
2018-08-11T07:12:58.674Z,1009.25
2018-08-11T07:13:58.613Z,1009.14
2018-08-11T07:14:58.675Z,1009.21
2018-08-11T07:15:58.583Z,1009.19
2018-08-11T07:16:58.548Z,1009.18
2018-08-11T07:17:58.511Z,1009.21
2018-08-11T07:18:58.491Z,1009.10
2018-08-11T07:19:58.459Z,1009.20
2018-08-11T07:20:58.439Z,1009.16
2018-08-11T07:21:58.413Z,1009.26
2018-08-11T07:22:58.384Z,1009.19
2018-08-11T07:23:58.352Z,1009.17
2018-08-11T07:24:58.330Z,1009.21
2018-08-11T07:25:58.299Z,1009.24
2018-08-11T07:26:58.273Z,1009.28
2018-08-11T07:27:58.257Z,1009.25
2018-08-11T07:28:58.227Z,1009.28
2018-08-11T07:29:58.199Z,1009.26
2018-08-11T07:30:58.175Z,1009.27
2018-08-11T07:31:58.146Z,1009.23
2018-08-11T07:32:58.129Z,1009.27
2018-08-11T07:33:58.094Z,1009.39
2018-08-11T07:34:58.069Z,1009.32
2018-08-11T07:35:58.084Z,1009.37
2018-08-11T07:36:58.017Z,1009.39
2018-08-11T07:37:57.993Z,1009.37
2018-08-11T07:38:57.964Z,1009.31
2018-08-11T07:39:57.935Z,1009.36
2018-08-11T07:40:57.910Z,1009.34
2018-08-11T07:41:57.890Z,1009.46
2018-08-11T07:42:57.860Z,1009.44
2018-08-11T07:43:57.836Z,1009.48
2018-08-11T07:44:57.810Z,1009.39
2018-08-11T07:45:57.776Z,1009.44
2018-08-11T07:46:57.755Z,1009.42
2018-08-11T07:47:57.735Z,1009.39
2018-08-11T07:48:57.707Z,1009.46
2018-08-11T07:49:57.673Z,1009.49
2018-08-11T07:50:57.653Z,1009.62
2018-08-11T07:51:57.628Z,1009.51
2018-08-11T07:52:57.611Z,1009.51
2018-08-11T07:53:57.577Z,1009.49
2018-08-11T07:54:57.553Z,1009.51
2018-08-11T07:55:57.585Z,1009.51
2018-08-11T07:56:57.497Z,1009.51
2018-08-11T07:57:57.471Z,1009.53
2018-08-11T07:58:57.448Z,1009.56
2018-08-11T07:59:57.416Z,1009.56
2018-08-11T08:00:57.389Z,1009.56
2018-08-11T08:01:57.365Z,1009.65
2018-08-11T08:02:57.342Z,1009.61
2018-08-11T08:03:57.319Z,1009.54
2018-08-11T08:04:57.289Z,1009.52
2018-08-11T08:05:57.260Z,1009.57
2018-08-11T08:06:57.237Z,1009.59
2018-08-11T08:07:57.255Z,1009.57
2018-08-11T08:08:57.185Z,1009.59
2018-08-11T08:09:57.159Z,1009.58
2018-08-11T08:10:57.129Z,1009.59
2018-08-11T08:11:57.112Z,1009.62
2018-08-11T08:12:57.076Z,1009.61
2018-08-11T08:13:57.056Z,1009.62
2018-08-11T08:14:57.032Z,1009.64
2018-08-11T08:15:57.038Z,1009.62
2018-08-11T08:16:56.979Z,1009.61
2018-08-11T08:17:56.949Z,1009.63
2018-08-11T08:18:56.924Z,1009.63
2018-08-11T08:19:56.901Z,1009.66
2018-08-11T08:20:56.874Z,1009.60
2018-08-11T08:21:56.848Z,1009.59
2018-08-11T08:22:56.823Z,1009.62
2018-08-11T08:23:56.794Z,1009.74
2018-08-11T08:24:56.772Z,1009.62
2018-08-11T08:25:56.785Z,1009.61
2018-08-11T08:26:56.784Z,1009.66
2018-08-11T08:27:56.695Z,1009.59
2018-08-11T08:28:56.663Z,1009.66
2018-08-11T08:29:56.639Z,1009.65
2018-08-11T08:30:56.617Z,1009.67
2018-08-11T08:31:56.595Z,1009.63
2018-08-11T08:32:56.564Z,1009.59
2018-08-11T08:33:56.600Z,1009.56
2018-08-11T08:34:56.511Z,1009.58
2018-08-11T08:35:56.492Z,1009.61
2018-08-11T08:36:56.459Z,1009.65
2018-08-11T08:37:56.441Z,1009.66
2018-08-11T08:38:56.414Z,1009.57
2018-08-11T08:39:56.380Z,1009.59
2018-08-11T08:40:56.367Z,1009.61
2018-08-11T08:41:56.394Z,1009.56
2018-08-11T08:42:56.355Z,1009.54
2018-08-11T08:43:56.284Z,1009.59
2018-08-11T08:44:56.256Z,1009.64
2018-08-11T08:45:56.228Z,1009.60
2018-08-11T08:46:56.207Z,1009.59
2018-08-11T08:47:56.172Z,1009.60
2018-08-11T08:48:56.162Z,1009.61
2018-08-11T08:49:56.128Z,1009.59
2018-08-11T08:50:56.107Z,1009.64
2018-08-11T08:51:56.071Z,1009.63
2018-08-11T08:52:56.055Z,1009.62
2018-08-11T08:53:56.017Z,1009.54
2018-08-11T08:54:55.999Z,1009.61
2018-08-11T08:55:55.979Z,1009.58
2018-08-11T08:56:55.944Z,1009.59
2018-08-11T08:57:55.920Z,1009.54
2018-08-11T08:58:55.893Z,1009.56
2018-08-11T08:59:55.860Z,1009.57
2018-08-11T09:00:55.844Z,1009.52
2018-08-11T09:01:55.809Z,1009.52
2018-08-11T09:02:55.786Z,1009.67
2018-08-11T09:03:55.766Z,1009.61
2018-08-11T09:04:55.810Z,1009.60
2018-08-11T09:05:55.716Z,1009.49
2018-08-11T09:06:55.686Z,1009.52
2018-08-11T09:07:55.659Z,1009.50
2018-08-11T09:08:55.633Z,1009.58
2018-08-11T09:09:55.619Z,1009.55
2018-08-11T09:10:55.579Z,1009.53
2018-08-11T09:11:55.600Z,1009.56
2018-08-11T09:12:55.529Z,1009.63
2018-08-11T09:13:55.506Z,1009.63
2018-08-11T09:14:55.480Z,1009.62
2018-08-11T09:15:55.453Z,1009.61
2018-08-11T09:16:55.429Z,1009.57
2018-08-11T09:17:55.402Z,1009.56
2018-08-11T09:18:55.376Z,1009.71
2018-08-11T09:19:55.353Z,1009.60
2018-08-11T09:20:55.329Z,1009.53
2018-08-11T09:21:55.301Z,1009.64
2018-08-11T09:22:55.271Z,1009.54
2018-08-11T09:23:55.249Z,1009.55
2018-08-11T09:24:55.226Z,1009.56
2018-08-11T09:25:55.191Z,1009.53
2018-08-11T09:26:55.172Z,1009.63
2018-08-11T09:27:55.142Z,1009.53
2018-08-11T09:28:55.114Z,1009.52
2018-08-11T09:29:55.101Z,1009.55
2018-08-11T09:30:55.068Z,1009.56
2018-08-11T09:31:55.045Z,1009.53
2018-08-11T09:32:55.023Z,1009.60
2018-08-11T09:33:54.989Z,1009.60
2018-08-11T09:34:54.972Z,1009.64
2018-08-11T09:35:54.941Z,1009.66
2018-08-11T09:36:54.912Z,1009.67
2018-08-11T09:37:54.894Z,1009.66
2018-08-11T09:38:54.871Z,1009.69
2018-08-11T09:39:54.838Z,1009.70
2018-08-11T09:40:54.807Z,1009.68
2018-08-11T09:41:54.793Z,1009.72
2018-08-11T09:42:54.790Z,1009.72
2018-08-11T09:43:54.738Z,1009.74
2018-08-11T09:44:54.717Z,1009.74
2018-08-11T09:45:54.707Z,1009.67
2018-08-11T09:46:54.663Z,1009.72
2018-08-11T09:47:54.640Z,1009.68
2018-08-11T09:48:54.609Z,1009.71
2018-08-11T09:49:54.581Z,1009.69
2018-08-11T09:50:54.568Z,1009.72
2018-08-11T09:51:54.529Z,1009.72
2018-08-11T09:52:54.520Z,1009.72
2018-08-11T09:53:54.485Z,1009.76
2018-08-11T09:54:54.459Z,1009.69
2018-08-11T09:55:54.433Z,1009.71
2018-08-11T09:56:54.404Z,1009.71
2018-08-11T09:57:54.382Z,1009.78
2018-08-11T09:58:54.349Z,1009.74
2018-08-11T09:59:54.334Z,1009.69
2018-08-11T10:00:54.298Z,1009.69
2018-08-11T10:01:54.279Z,1009.64
2018-08-11T10:02:54.252Z,1009.78
2018-08-11T10:03:54.221Z,1009.73
2018-08-11T10:04:54.207Z,1009.62
2018-08-11T10:05:54.170Z,1009.65
2018-08-11T10:06:54.145Z,1009.66
2018-08-11T10:07:54.131Z,1009.58
2018-08-11T10:08:54.131Z,1009.80
2018-08-11T10:09:54.080Z,1009.67
2018-08-11T10:10:54.053Z,1009.85
2018-08-11T10:11:54.039Z,1009.74
2018-08-11T10:12:53.995Z,1009.57
2018-08-11T10:13:53.974Z,1009.59
2018-08-11T10:14:53.950Z,1009.60
2018-08-11T10:15:53.921Z,1009.53
2018-08-11T10:16:53.895Z,1009.51
2018-08-11T10:17:53.871Z,1009.47
2018-08-11T10:18:53.845Z,1009.44
2018-08-11T10:19:53.818Z,1009.63
2018-08-11T10:20:53.794Z,1009.56
2018-08-11T10:21:53.766Z,1009.58
2018-08-11T10:22:53.741Z,1009.59
2018-08-11T10:23:53.719Z,1009.68
2018-08-11T10:24:53.688Z,1009.61
2018-08-11T10:25:53.673Z,1009.63
2018-08-11T10:26:53.640Z,1009.60
2018-08-11T10:27:53.618Z,1009.63
2018-08-11T10:28:53.598Z,1009.70
2018-08-11T10:29:53.564Z,1009.56
2018-08-11T10:30:53.539Z,1009.75
2018-08-11T10:31:53.529Z,1009.55
2018-08-11T10:32:53.493Z,1009.58
2018-08-11T10:33:53.466Z,1009.63
2018-08-11T10:34:53.439Z,1009.66
2018-08-11T10:35:53.416Z,1009.52
2018-08-11T10:36:53.394Z,1009.52
2018-08-11T10:37:53.372Z,1009.54
2018-08-11T10:38:53.338Z,1009.57
2018-08-11T10:39:53.335Z,1009.61
2018-08-11T10:40:53.282Z,1009.56
2018-08-11T10:41:53.267Z,1009.56
2018-08-11T10:42:53.237Z,1009.58
2018-08-11T10:43:53.209Z,1009.55
2018-08-11T10:44:53.187Z,1009.56
2018-08-11T10:45:53.159Z,1009.59
2018-08-11T10:46:53.139Z,1009.63
2018-08-11T10:47:53.107Z,1009.60
2018-08-11T10:48:53.092Z,1009.72
2018-08-11T10:49:53.058Z,1009.64
2018-08-11T10:50:53.032Z,1009.61
2018-08-11T10:51:53.004Z,1009.64
2018-08-11T10:52:52.988Z,1009.66
2018-08-11T10:53:52.956Z,1009.63
2018-08-11T10:54:52.929Z,1009.66
2018-08-11T10:55:52.958Z,1009.65
2018-08-11T10:56:52.887Z,1009.60
2018-08-11T10:57:52.863Z,1009.69
2018-08-11T10:58:52.830Z,1009.65
2018-08-11T10:59:52.812Z,1009.61
2018-08-11T11:00:52.778Z,1009.68
2018-08-11T11:01:52.761Z,1009.58
2018-08-11T11:02:52.737Z,1009.50
2018-08-11T11:03:52.704Z,1009.54
2018-08-11T11:04:52.685Z,1009.53
2018-08-11T11:05:52.652Z,1009.55
2018-08-11T11:06:52.628Z,1009.53
2018-08-11T11:07:52.603Z,1009.51
2018-08-11T11:08:52.582Z,1009.52
2018-08-11T11:09:52.552Z,1009.62
2018-08-11T11:10:52.528Z,1009.46
2018-08-11T11:11:52.504Z,1009.41
2018-08-11T11:12:52.484Z,1009.51
2018-08-11T11:13:52.455Z,1009.49
2018-08-11T11:14:52.429Z,1009.44
2018-08-11T11:15:52.408Z,1009.42
2018-08-11T11:16:52.376Z,1009.49
2018-08-11T11:17:52.355Z,1009.55
2018-08-11T11:18:52.329Z,1009.55
2018-08-11T11:19:52.303Z,1009.62
2018-08-11T11:20:52.320Z,1009.75
2018-08-11T11:21:52.252Z,1009.63
2018-08-11T11:22:52.227Z,1009.78
2018-08-11T11:23:52.204Z,1009.81
2018-08-11T11:24:52.181Z,1009.58
2018-08-11T11:25:52.154Z,1009.52
2018-08-11T11:26:52.135Z,1009.53
2018-08-11T11:27:52.106Z,1009.52
2018-08-11T11:28:52.075Z,1009.49
2018-08-11T11:29:52.057Z,1009.56
2018-08-11T11:30:52.024Z,1009.56
2018-08-11T11:31:52.008Z,1009.67
2018-08-11T11:32:51.977Z,1009.65
2018-08-11T11:33:51.950Z,1009.63
2018-08-11T11:34:51.931Z,1009.71
2018-08-11T11:35:51.898Z,1009.42
2018-08-11T11:36:51.877Z,1009.51
2018-08-11T11:37:51.853Z,1009.53
2018-08-11T11:38:51.855Z,1009.59
2018-08-11T11:39:51.807Z,1009.58
2018-08-11T11:40:51.783Z,1009.59
2018-08-11T11:41:51.758Z,1009.64
2018-08-11T11:42:51.734Z,1009.63
2018-08-11T11:43:51.699Z,1009.59
2018-08-11T11:44:51.679Z,1009.61
2018-08-11T11:45:51.658Z,1009.52
2018-08-11T11:46:51.632Z,1009.56
2018-08-11T11:47:51.600Z,1009.73
2018-08-11T11:48:51.582Z,1009.57
2018-08-11T11:49:51.550Z,1009.57
2018-08-11T11:50:51.529Z,1009.63
2018-08-11T11:51:51.676Z,1009.49
2018-08-11T11:52:51.476Z,1009.58
2018-08-11T11:53:51.459Z,1009.45
2018-08-11T11:54:51.433Z,1009.41
2018-08-11T11:55:51.402Z,1009.40
2018-08-11T11:56:51.384Z,1009.45
2018-08-11T11:57:51.369Z,1009.48
2018-08-11T11:58:51.328Z,1009.52
2018-08-11T11:59:51.375Z,1009.40
2018-08-11T12:00:51.348Z,1009.48
2018-08-11T12:01:51.261Z,1009.62
2018-08-11T12:02:51.229Z,1009.51
2018-08-11T12:03:51.212Z,1009.47
2018-08-11T12:04:51.183Z,1009.47